sensor_id;sensor_type;location;lat;lon;timestamp;P1;durP1;ratioP1;P2;durP2;ratioP2
17365;SDS011;8800;50.118;9.900;2023-12-20T00:00:34;5.55;;;2.22;;
17365;SDS011;8800;50.118;9.900;2023-12-20T00:03:02;10.20;;;3.38;;
17365;SDS011;8800;50.118;9.900;2023-12-20T00:05:28;3.17;;;1.67;;
17365;SDS011;8800;50.118;9.900;2023-12-20T00:07:57;3.97;;;1.85;;
17365;SDS011;8800;50.118;9.900;2023-12-20T00:10:23;2.33;;;1.23;;
17365;SDS011;8800;50.118;9.900;2023-12-20T00:12:51;2.00;;;1.10;;
17365;SDS011;8800;50.118;9.900;2023-12-20T00:15:17;2.75;;;1.63;;
17365;SDS011;8800;50.118;9.900;2023-12-20T00:17:44;3.17;;;1.00;;
17365;SDS011;8800;50.118;9.900;2023-12-20T00:20:10;4.95;;;1.85;;
17365;SDS011;8800;50.118;9.900;2023-12-20T00:22:37;2.50;;;1.00;;
17365;SDS011;8800;50.118;9.900;2023-12-20T00:25:04;1.65;;;0.90;;
17365;SDS011;8800;50.118;9.900;2023-12-20T00:27:30;1.85;;;1.10;;
17365;SDS011;8800;50.118;9.900;2023-12-20T00:29:58;5.30;;;1.63;;
17365;SDS011;8800;50.118;9.900;2023-12-20T00:32:25;2.20;;;1.40;;
17365;SDS011;8800;50.118;9.900;2023-12-20T00:34:51;4.15;;;2.13;;
17365;SDS011;8800;50.118;9.900;2023-12-20T00:37:18;2.50;;;1.27;;
17365;SDS011;8800;50.118;9.900;2023-12-20T00:39:44;6.75;;;3.55;;
17365;SDS011;8800;50.118;9.900;2023-12-20T00:42:11;7.85;;;3.38;;
17365;SDS011;8800;50.118;9.900;2023-12-20T00:44:37;8.52;;;3.47;;
17365;SDS011;8800;50.118;9.900;2023-12-20T00:47:05;4.28;;;2.13;;
17365;SDS011;8800;50.118;9.900;2023-12-20T00:49:32;5.22;;;2.58;;
17365;SDS011;8800;50.118;9.900;2023-12-20T00:51:58;4.60;;;2.47;;
17365;SDS011;8800;50.118;9.900;2023-12-20T00:54:25;1.85;;;1.25;;
17365;SDS011;8800;50.118;9.900;2023-12-20T00:56:51;4.35;;;2.03;;
17365;SDS011;8800;50.118;9.900;2023-12-20T00:59:18;5.28;;;1.92;;
17365;SDS011;8800;50.118;9.900;2023-12-20T01:01:45;12.15;;;5.28;;
17365;SDS011;8800;50.118;9.900;2023-12-20T01:04:13;13.90;;;5.78;;
17365;SDS011;8800;50.118;9.900;2023-12-20T01:06:40;23.92;;;9.93;;
17365;SDS011;8800;50.118;9.900;2023-12-20T01:09:06;9.82;;;5.18;;
17365;SDS011;8800;50.118;9.900;2023-12-20T01:11:33;10.15;;;5.80;;
17365;SDS011;8800;50.118;9.900;2023-12-20T01:13:59;2.67;;;1.20;;
17365;SDS011;8800;50.118;9.900;2023-12-20T01:16:26;1.50;;;1.00;;
17365;SDS011;8800;50.118;9.900;2023-12-20T01:18:52;3.00;;;1.15;;
17365;SDS011;8800;50.118;9.900;2023-12-20T01:21:21;2.85;;;1.83;;
17365;SDS011;8800;50.118;9.900;2023-12-20T01:23:47;1.20;;;0.70;;
17365;SDS011;8800;50.118;9.900;2023-12-20T01:26:14;0.90;;;0.60;;
17365;SDS011;8800;50.118;9.900;2023-12-20T01:28:41;1.77;;;0.90;;
17365;SDS011;8800;50.118;9.900;2023-12-20T01:31:08;2.38;;;0.80;;
17365;SDS011;8800;50.118;9.900;2023-12-20T01:33:34;2.80;;;1.00;;
17365;SDS011;8800;50.118;9.900;2023-12-20T01:36:01;2.00;;;0.98;;
17365;SDS011;8800;50.118;9.900;2023-12-20T01:38:29;1.92;;;0.80;;
17365;SDS011;8800;50.118;9.900;2023-12-20T01:40:55;2.90;;;1.00;;
17365;SDS011;8800;50.118;9.900;2023-12-20T01:43:22;1.33;;;0.77;;
17365;SDS011;8800;50.118;9.900;2023-12-20T01:45:48;0.77;;;0.60;;
17365;SDS011;8800;50.118;9.900;2023-12-20T01:48:15;1.23;;;0.70;;
17365;SDS011;8800;50.118;9.900;2023-12-20T01:50:42;1.10;;;0.60;;
17365;SDS011;8800;50.118;9.900;2023-12-20T01:53:09;2.42;;;1.10;;
17365;SDS011;8800;50.118;9.900;2023-12-20T01:55:38;3.53;;;1.45;;
17365;SDS011;8800;50.118;9.900;2023-12-20T01:58:05;7.90;;;3.80;;
17365;SDS011;8800;50.118;9.900;2023-12-20T02:00:32;5.75;;;1.77;;
17365;SDS011;8800;50.118;9.900;2023-12-20T02:03:00;2.03;;;1.00;;
17365;SDS011;8800;50.118;9.900;2023-12-20T02:05:27;2.55;;;1.23;;
17365;SDS011;8800;50.118;9.900;2023-12-20T02:07:54;1.60;;;0.65;;
17365;SDS011;8800;50.118;9.900;2023-12-20T02:10:20;2.28;;;0.98;;
17365;SDS011;8800;50.118;9.900;2023-12-20T02:12:48;1.92;;;0.75;;
17365;SDS011;8800;50.118;9.900;2023-12-20T02:15:15;4.78;;;1.73;;
17365;SDS011;8800;50.118;9.900;2023-12-20T02:17:41;3.35;;;1.67;;
17365;SDS011;8800;50.118;9.900;2023-12-20T02:20:08;4.55;;;1.38;;
17365;SDS011;8800;50.118;9.900;2023-12-20T02:22:36;4.47;;;2.00;;
17365;SDS011;8800;50.118;9.900;2023-12-20T02:25:03;2.70;;;1.35;;
17365;SDS011;8800;50.118;9.900;2023-12-20T02:27:29;1.60;;;0.95;;
17365;SDS011;8800;50.118;9.900;2023-12-20T02:29:56;4.85;;;1.60;;
17365;SDS011;8800;50.118;9.900;2023-12-20T02:32:23;3.58;;;1.52;;
17365;SDS011;8800;50.118;9.900;2023-12-20T02:34:51;3.58;;;1.42;;
17365;SDS011;8800;50.118;9.900;2023-12-20T02:37:17;2.22;;;1.00;;
17365;SDS011;8800;50.118;9.900;2023-12-20T02:39:45;4.13;;;1.45;;
17365;SDS011;8800;50.118;9.900;2023-12-20T02:42:12;4.53;;;1.80;;
17365;SDS011;8800;50.118;9.900;2023-12-20T02:44:38;3.03;;;1.75;;
17365;SDS011;8800;50.118;9.900;2023-12-20T02:47:04;5.65;;;2.90;;
17365;SDS011;8800;50.118;9.900;2023-12-20T02:49:31;4.05;;;2.42;;
17365;SDS011;8800;50.118;9.900;2023-12-20T02:51:57;1.35;;;0.60;;
17365;SDS011;8800;50.118;9.900;2023-12-20T02:54:24;0.80;;;0.60;;
17365;SDS011;8800;50.118;9.900;2023-12-20T02:56:51;0.98;;;0.60;;
17365;SDS011;8800;50.118;9.900;2023-12-20T02:59:24;2.17;;;0.77;;
17365;SDS011;8800;50.118;9.900;2023-12-20T03:01:50;1.95;;;0.98;;
17365;SDS011;8800;50.118;9.900;2023-12-20T03:04:17;1.85;;;1.08;;
17365;SDS011;8800;50.118;9.900;2023-12-20T03:06:43;1.33;;;0.50;;
17365;SDS011;8800;50.118;9.900;2023-12-20T03:09:10;0.73;;;0.50;;
17365;SDS011;8800;50.118;9.900;2023-12-20T03:11:36;1.02;;;0.50;;
17365;SDS011;8800;50.118;9.900;2023-12-20T03:14:04;1.10;;;0.50;;
17365;SDS011;8800;50.118;9.900;2023-12-20T03:16:30;3.47;;;1.60;;
17365;SDS011;8800;50.118;9.900;2023-12-20T03:18:58;1.73;;;0.77;;
17365;SDS011;8800;50.118;9.900;2023-12-20T03:21:24;1.33;;;0.70;;
17365;SDS011;8800;50.118;9.900;2023-12-20T03:23:51;1.58;;;0.80;;
17365;SDS011;8800;50.118;9.900;2023-12-20T03:26:17;0.60;;;0.50;;
17365;SDS011;8800;50.118;9.900;2023-12-20T03:28:44;0.50;;;0.50;;
17365;SDS011;8800;50.118;9.900;2023-12-20T03:31:12;3.05;;;0.60;;
17365;SDS011;8800;50.118;9.900;2023-12-20T03:33:39;0.77;;;0.47;;
17365;SDS011;8800;50.118;9.900;2023-12-20T03:36:05;0.60;;;0.40;;
17365;SDS011;8800;50.118;9.900;2023-12-20T03:38:32;1.30;;;0.50;;
17365;SDS011;8800;50.118;9.900;2023-12-20T03:40:58;0.82;;;0.60;;
17365;SDS011;8800;50.118;9.900;2023-12-20T03:43:25;0.47;;;0.40;;
17365;SDS011;8800;50.118;9.900;2023-12-20T03:45:51;0.68;;;0.38;;
17365;SDS011;8800;50.118;9.900;2023-12-20T03:48:19;1.20;;;0.50;;
17365;SDS011;8800;50.118;9.900;2023-12-20T03:50:46;0.43;;;0.43;;
17365;SDS011;8800;50.118;9.900;2023-12-20T03:53:12;0.57;;;0.50;;
17365;SDS011;8800;50.118;9.900;2023-12-20T03:55:39;0.85;;;0.60;;
17365;SDS011;8800;50.118;9.900;2023-12-20T03:58:05;1.20;;;0.50;;
17365;SDS011;8800;50.118;9.900;2023-12-20T04:00:32;0.80;;;0.50;;
17365;SDS011;8800;50.118;9.900;2023-12-20T04:02:59;1.13;;;0.57;;
17365;SDS011;8800;50.118;9.900;2023-12-20T04:05:27;0.75;;;0.40;;
17365;SDS011;8800;50.118;9.900;2023-12-20T04:07:53;0.90;;;0.60;;
17365;SDS011;8800;50.118;9.900;2023-12-20T04:10:20;0.60;;;0.50;;
17365;SDS011;8800;50.118;9.900;2023-12-20T04:12:46;0.43;;;0.40;;
17365;SDS011;8800;50.118;9.900;2023-12-20T04:15:13;0.47;;;0.45;;
17365;SDS011;8800;50.118;9.900;2023-12-20T04:17:39;0.40;;;0.40;;
17365;SDS011;8800;50.118;9.900;2023-12-20T04:20:06;0.52;;;0.47;;
17365;SDS011;8800;50.118;9.900;2023-12-20T04:22:35;0.90;;;0.60;;
17365;SDS011;8800;50.118;9.900;2023-12-20T04:25:01;0.85;;;0.60;;
17365;SDS011;8800;50.118;9.900;2023-12-20T04:27:28;1.98;;;1.10;;
17365;SDS011;8800;50.118;9.900;2023-12-20T04:29:55;1.67;;;1.00;;
17365;SDS011;8800;50.118;9.900;2023-12-20T04:32:21;1.40;;;1.00;;
17365;SDS011;8800;50.118;9.900;2023-12-20T04:34:48;1.73;;;1.23;;
17365;SDS011;8800;50.118;9.900;2023-12-20T04:37:14;3.40;;;1.10;;
17365;SDS011;8800;50.118;9.900;2023-12-20T04:39:42;2.13;;;1.30;;
17365;SDS011;8800;50.118;9.900;2023-12-20T04:42:08;3.58;;;1.50;;
17365;SDS011;8800;50.118;9.900;2023-12-20T04:44:35;3.33;;;1.35;;
17365;SDS011;8800;50.118;9.900;2023-12-20T04:47:01;2.00;;;1.38;;
17365;SDS011;8800;50.118;9.900;2023-12-20T04:49:28;2.22;;;1.40;;
17365;SDS011;8800;50.118;9.900;2023-12-20T04:51:55;1.48;;;1.02;;
17365;SDS011;8800;50.118;9.900;2023-12-20T04:54:21;1.92;;;1.13;;
17365;SDS011;8800;50.118;9.900;2023-12-20T04:56:49;2.20;;;1.20;;
17365;SDS011;8800;50.118;9.900;2023-12-20T04:59:16;3.65;;;1.33;;
17365;SDS011;8800;50.118;9.900;2023-12-20T05:01:42;2.03;;;1.20;;
17365;SDS011;8800;50.118;9.900;2023-12-20T05:04:09;2.92;;;1.08;;
17365;SDS011;8800;50.118;9.900;2023-12-20T05:06:35;2.10;;;0.80;;
17365;SDS011;8800;50.118;9.900;2023-12-20T05:09:02;0.88;;;0.73;;
17365;SDS011;8800;50.118;9.900;2023-12-20T05:11:29;1.17;;;0.80;;
17365;SDS011;8800;50.118;9.900;2023-12-20T05:13:57;1.55;;;0.90;;
17365;SDS011;8800;50.118;9.900;2023-12-20T05:16:23;1.65;;;0.90;;
17365;SDS011;8800;50.118;9.900;2023-12-20T05:18:50;1.35;;;0.80;;
17365;SDS011;8800;50.118;9.900;2023-12-20T05:21:17;6.05;;;1.13;;
17365;SDS011;8800;50.118;9.900;2023-12-20T05:23:44;5.15;;;1.48;;
17365;SDS011;8800;50.118;9.900;2023-12-20T05:26:10;1.65;;;1.13;;
17365;SDS011;8800;50.118;9.900;2023-12-20T05:28:37;1.52;;;1.02;;
17365;SDS011;8800;50.118;9.900;2023-12-20T05:31:05;3.60;;;1.38;;
17365;SDS011;8800;50.118;9.900;2023-12-20T05:33:31;2.33;;;1.30;;
17365;SDS011;8800;50.118;9.900;2023-12-20T05:35:58;2.78;;;1.25;;
17365;SDS011;8800;50.118;9.900;2023-12-20T05:38:25;3.42;;;1.45;;
17365;SDS011;8800;50.118;9.900;2023-12-20T05:40:52;3.40;;;1.67;;
17365;SDS011;8800;50.118;9.900;2023-12-20T05:43:18;2.80;;;1.88;;
17365;SDS011;8800;50.118;9.900;2023-12-20T05:45:45;4.07;;;1.98;;
17365;SDS011;8800;50.118;9.900;2023-12-20T05:48:13;6.35;;;2.05;;
17365;SDS011;8800;50.118;9.900;2023-12-20T05:50:39;3.88;;;2.35;;
17365;SDS011;8800;50.118;9.900;2023-12-20T05:53:06;8.20;;;2.80;;
17365;SDS011;8800;50.118;9.900;2023-12-20T05:55:32;9.02;;;2.90;;
17365;SDS011;8800;50.118;9.900;2023-12-20T05:57:59;6.07;;;3.55;;
17365;SDS011;8800;50.118;9.900;2023-12-20T06:00:26;6.55;;;3.47;;
17365;SDS011;8800;50.118;9.900;2023-12-20T06:02:53;7.40;;;3.88;;
17365;SDS011;8800;50.118;9.900;2023-12-20T06:05:24;7.00;;;2.85;;
17365;SDS011;8800;50.118;9.900;2023-12-20T06:07:52;6.75;;;3.00;;
17365;SDS011;8800;50.118;9.900;2023-12-20T06:10:21;5.53;;;3.03;;
17365;SDS011;8800;50.118;9.900;2023-12-20T06:12:48;6.88;;;3.47;;
17365;SDS011;8800;50.118;9.900;2023-12-20T06:15:16;6.30;;;3.40;;
17365;SDS011;8800;50.118;9.900;2023-12-20T06:17:42;6.07;;;2.90;;
17365;SDS011;8800;50.118;9.900;2023-12-20T06:20:09;14.15;;;4.53;;
17365;SDS011;8800;50.118;9.900;2023-12-20T06:22:37;12.02;;;4.93;;
17365;SDS011;8800;50.118;9.900;2023-12-20T06:25:04;11.98;;;5.15;;
17365;SDS011;8800;50.118;9.900;2023-12-20T06:27:32;12.30;;;4.35;;
17365;SDS011;8800;50.118;9.900;2023-12-20T06:29:58;6.80;;;3.63;;
17365;SDS011;8800;50.118;9.900;2023-12-20T06:32:25;9.43;;;4.13;;
17365;SDS011;8800;50.118;9.900;2023-12-20T06:34:51;9.00;;;3.97;;
17365;SDS011;8800;50.118;9.900;2023-12-20T06:37:18;5.72;;;3.90;;
17365;SDS011;8800;50.118;9.900;2023-12-20T06:39:46;7.05;;;4.40;;
17365;SDS011;8800;50.118;9.900;2023-12-20T06:42:13;5.80;;;3.40;;
17365;SDS011;8800;50.118;9.900;2023-12-20T06:44:39;8.65;;;3.88;;
17365;SDS011;8800;50.118;9.900;2023-12-20T06:47:09;11.20;;;4.18;;
17365;SDS011;8800;50.118;9.900;2023-12-20T06:49:35;5.25;;;3.38;;
17365;SDS011;8800;50.118;9.900;2023-12-20T06:52:02;5.45;;;3.65;;
17365;SDS011;8800;50.118;9.900;2023-12-20T06:54:29;6.80;;;3.17;;
17365;SDS011;8800;50.118;9.900;2023-12-20T06:56:57;9.68;;;4.53;;
17365;SDS011;8800;50.118;9.900;2023-12-20T06:59:24;8.07;;;4.82;;
17365;SDS011;8800;50.118;9.900;2023-12-20T07:01:51;8.60;;;4.45;;
17365;SDS011;8800;50.118;9.900;2023-12-20T07:04:17;9.82;;;4.50;;
17365;SDS011;8800;50.118;9.900;2023-12-20T07:06:47;13.43;;;6.03;;
17365;SDS011;8800;50.118;9.900;2023-12-20T07:09:13;16.33;;;6.75;;
17365;SDS011;8800;50.118;9.900;2023-12-20T07:11:40;10.65;;;4.70;;
17365;SDS011;8800;50.118;9.900;2023-12-20T07:14:11;14.85;;;6.93;;
17365;SDS011;8800;50.118;9.900;2023-12-20T07:16:38;8.95;;;4.50;;
17365;SDS011;8800;50.118;9.900;2023-12-20T07:19:04;16.30;;;7.38;;
17365;SDS011;8800;50.118;9.900;2023-12-20T07:21:31;15.68;;;6.10;;
17365;SDS011;8800;50.118;9.900;2023-12-20T07:23:57;25.17;;;9.93;;
17365;SDS011;8800;50.118;9.900;2023-12-20T07:26:24;9.07;;;3.80;;
17365;SDS011;8800;50.118;9.900;2023-12-20T07:28:50;7.45;;;3.03;;
17365;SDS011;8800;50.118;9.900;2023-12-20T07:31:19;6.22;;;2.90;;
17365;SDS011;8800;50.118;9.900;2023-12-20T07:33:45;6.00;;;3.63;;
17365;SDS011;8800;50.118;9.900;2023-12-20T07:36:12;9.23;;;4.07;;
17365;SDS011;8800;50.118;9.900;2023-12-20T07:38:39;10.02;;;3.67;;
17365;SDS011;8800;50.118;9.900;2023-12-20T07:41:09;7.95;;;3.35;;
17365;SDS011;8800;50.118;9.900;2023-12-20T07:43:35;10.77;;;3.10;;
17365;SDS011;8800;50.118;9.900;2023-12-20T07:46:05;7.55;;;3.20;;
17365;SDS011;8800;50.118;9.900;2023-12-20T07:48:34;11.30;;;4.55;;
17365;SDS011;8800;50.118;9.900;2023-12-20T07:51:02;9.48;;;3.50;;
17365;SDS011;8800;50.118;9.900;2023-12-20T07:53:28;9.13;;;3.67;;
17365;SDS011;8800;50.118;9.900;2023-12-20T07:55:55;10.90;;;5.15;;
17365;SDS011;8800;50.118;9.900;2023-12-20T07:58:21;11.18;;;5.35;;
17365;SDS011;8800;50.118;9.900;2023-12-20T08:00:48;8.02;;;4.07;;
17365;SDS011;8800;50.118;9.900;2023-12-20T08:03:15;7.35;;;3.25;;
17365;SDS011;8800;50.118;9.900;2023-12-20T08:05:43;9.10;;;3.50;;
17365;SDS011;8800;50.118;9.900;2023-12-20T08:08:12;13.75;;;4.80;;
17365;SDS011;8800;50.118;9.900;2023-12-20T08:10:39;10.60;;;5.20;;
17365;SDS011;8800;50.118;9.900;2023-12-20T08:13:09;9.48;;;4.22;;
17365;SDS011;8800;50.118;9.900;2023-12-20T08:15:35;10.43;;;3.83;;
17365;SDS011;8800;50.118;9.900;2023-12-20T08:18:03;7.15;;;2.75;;
17365;SDS011;8800;50.118;9.900;2023-12-20T08:20:29;8.77;;;2.50;;
17365;SDS011;8800;50.118;9.900;2023-12-20T08:22:59;6.45;;;2.45;;
17365;SDS011;8800;50.118;9.900;2023-12-20T08:25:25;8.10;;;1.80;;
17365;SDS011;8800;50.118;9.900;2023-12-20T08:27:52;3.25;;;1.52;;
17365;SDS011;8800;50.118;9.900;2023-12-20T08:30:19;6.47;;;1.75;;
17365;SDS011;8800;50.118;9.900;2023-12-20T08:32:47;6.45;;;1.88;;
17365;SDS011;8800;50.118;9.900;2023-12-20T08:35:13;7.60;;;1.50;;
17365;SDS011;8800;50.118;9.900;2023-12-20T08:37:40;8.38;;;1.80;;
17365;SDS011;8800;50.118;9.900;2023-12-20T08:40:09;6.93;;;3.08;;
17365;SDS011;8800;50.118;9.900;2023-12-20T08:42:35;7.75;;;1.80;;
17365;SDS011;8800;50.118;9.900;2023-12-20T08:45:02;5.32;;;1.73;;
17365;SDS011;8800;50.118;9.900;2023-12-20T08:47:29;6.10;;;1.90;;
17365;SDS011;8800;50.118;9.900;2023-12-20T08:49:56;5.15;;;2.55;;
17365;SDS011;8800;50.118;9.900;2023-12-20T08:52:25;7.10;;;2.60;;
17365;SDS011;8800;50.118;9.900;2023-12-20T08:54:52;3.95;;;1.38;;
17365;SDS011;8800;50.118;9.900;2023-12-20T08:57:20;7.57;;;2.20;;
17365;SDS011;8800;50.118;9.900;2023-12-20T08:59:48;6.53;;;2.10;;
17365;SDS011;8800;50.118;9.900;2023-12-20T09:02:15;9.02;;;3.97;;
17365;SDS011;8800;50.118;9.900;2023-12-20T09:04:42;24.48;;;9.68;;
17365;SDS011;8800;50.118;9.900;2023-12-20T09:07:20;6.45;;;3.67;;
17365;SDS011;8800;50.118;9.900;2023-12-20T09:09:47;8.73;;;2.25;;
17365;SDS011;8800;50.118;9.900;2023-12-20T09:12:13;4.32;;;1.95;;
17365;SDS011;8800;50.118;9.900;2023-12-20T09:14:41;4.60;;;1.83;;
17365;SDS011;8800;50.118;9.900;2023-12-20T09:17:08;6.35;;;1.77;;
17365;SDS011;8800;50.118;9.900;2023-12-20T09:19:36;6.97;;;2.20;;
17365;SDS011;8800;50.118;9.900;2023-12-20T09:22:03;4.25;;;1.50;;
17365;SDS011;8800;50.118;9.900;2023-12-20T09:24:30;7.97;;;1.70;;
17365;SDS011;8800;50.118;9.900;2023-12-20T09:26:57;8.07;;;2.00;;
17365;SDS011;8800;50.118;9.900;2023-12-20T09:29:25;7.88;;;1.65;;
17365;SDS011;8800;50.118;9.900;2023-12-20T09:31:53;6.05;;;2.15;;
17365;SDS011;8800;50.118;9.900;2023-12-20T09:34:20;8.85;;;2.35;;
17365;SDS011;8800;50.118;9.900;2023-12-20T09:36:47;6.22;;;1.20;;
17365;SDS011;8800;50.118;9.900;2023-12-20T09:39:14;6.72;;;2.08;;
17365;SDS011;8800;50.118;9.900;2023-12-20T09:41:42;6.85;;;1.50;;
17365;SDS011;8800;50.118;9.900;2023-12-20T09:44:09;15.07;;;2.67;;
17365;SDS011;8800;50.118;9.900;2023-12-20T09:46:39;6.72;;;1.50;;
17365;SDS011;8800;50.118;9.900;2023-12-20T09:49:08;7.28;;;1.60;;
17365;SDS011;8800;50.118;9.900;2023-12-20T09:51:35;4.72;;;1.90;;
17365;SDS011;8800;50.118;9.900;2023-12-20T09:54:02;6.00;;;1.77;;
17365;SDS011;8800;50.118;9.900;2023-12-20T09:56:29;5.38;;;1.65;;
17365;SDS011;8800;50.118;9.900;2023-12-20T09:58:56;6.82;;;1.65;;
17365;SDS011;8800;50.118;9.900;2023-12-20T10:01:22;5.38;;;1.90;;
17365;SDS011;8800;50.118;9.900;2023-12-20T10:03:50;6.75;;;1.60;;
17365;SDS011;8800;50.118;9.900;2023-12-20T10:06:18;5.20;;;1.83;;
17365;SDS011;8800;50.118;9.900;2023-12-20T10:08:45;5.30;;;1.98;;
17365;SDS011;8800;50.118;9.900;2023-12-20T10:11:11;6.25;;;1.85;;
17365;SDS011;8800;50.118;9.900;2023-12-20T10:13:39;6.28;;;2.35;;
17365;SDS011;8800;50.118;9.900;2023-12-20T10:16:05;8.05;;;1.73;;
17365;SDS011;8800;50.118;9.900;2023-12-20T10:18:32;5.95;;;2.05;;
17365;SDS011;8800;50.118;9.900;2023-12-20T10:20:59;9.15;;;2.90;;
17365;SDS011;8800;50.118;9.900;2023-12-20T10:23:28;12.02;;;3.00;;
17365;SDS011;8800;50.118;9.900;2023-12-20T10:25:57;7.25;;;2.58;;
17365;SDS011;8800;50.118;9.900;2023-12-20T10:28:24;8.10;;;1.92;;
17365;SDS011;8800;50.118;9.900;2023-12-20T10:30:53;10.32;;;2.50;;
17365;SDS011;8800;50.118;9.900;2023-12-20T10:33:23;5.68;;;2.25;;
17365;SDS011;8800;50.118;9.900;2023-12-20T10:35:50;5.75;;;2.50;;
17365;SDS011;8800;50.118;9.900;2023-12-20T10:38:17;4.43;;;1.50;;
17365;SDS011;8800;50.118;9.900;2023-12-20T10:40:45;6.63;;;1.55;;
17365;SDS011;8800;50.118;9.900;2023-12-20T10:43:12;7.50;;;1.30;;
17365;SDS011;8800;50.118;9.900;2023-12-20T10:45:38;3.72;;;1.83;;
17365;SDS011;8800;50.118;9.900;2023-12-20T10:48:05;12.95;;;2.35;;
17365;SDS011;8800;50.118;9.900;2023-12-20T10:50:32;3.55;;;1.48;;
17365;SDS011;8800;50.118;9.900;2023-12-20T10:52:59;6.70;;;1.80;;
17365;SDS011;8800;50.118;9.900;2023-12-20T10:55:26;5.38;;;1.63;;
17365;SDS011;8800;50.118;9.900;2023-12-20T10:57:57;9.32;;;2.00;;
17365;SDS011;8800;50.118;9.900;2023-12-20T11:00:26;9.45;;;2.28;;
17365;SDS011;8800;50.118;9.900;2023-12-20T11:02:55;8.70;;;2.10;;
17365;SDS011;8800;50.118;9.900;2023-12-20T11:05:25;7.70;;;1.75;;
17365;SDS011;8800;50.118;9.900;2023-12-20T11:07:56;10.63;;;2.40;;
17365;SDS011;8800;50.118;9.900;2023-12-20T11:10:29;7.13;;;1.70;;
17365;SDS011;8800;50.118;9.900;2023-12-20T11:12:59;10.23;;;2.00;;
17365;SDS011;8800;50.118;9.900;2023-12-20T11:15:30;3.70;;;1.65;;
17365;SDS011;8800;50.118;9.900;2023-12-20T11:17:56;5.18;;;2.00;;
17365;SDS011;8800;50.118;9.900;2023-12-20T11:20:23;4.47;;;1.92;;
17365;SDS011;8800;50.118;9.900;2023-12-20T11:22:53;6.30;;;2.20;;
17365;SDS011;8800;50.118;9.900;2023-12-20T11:25:21;7.00;;;2.10;;
17365;SDS011;8800;50.118;9.900;2023-12-20T11:30:30;7.60;;;1.90;;
17365;SDS011;8800;50.118;9.900;2023-12-20T11:33:07;8.48;;;2.70;;
17365;SDS011;8800;50.118;9.900;2023-12-20T11:35:33;8.15;;;2.25;;
17365;SDS011;8800;50.118;9.900;2023-12-20T11:38:02;5.10;;;1.80;;
17365;SDS011;8800;50.118;9.900;2023-12-20T11:40:29;8.38;;;1.70;;
17365;SDS011;8800;50.118;9.900;2023-12-20T11:43:00;5.32;;;1.63;;
17365;SDS011;8800;50.118;9.900;2023-12-20T11:45:26;9.18;;;1.80;;
17365;SDS011;8800;50.118;9.900;2023-12-20T11:47:54;8.98;;;2.28;;
17365;SDS011;8800;50.118;9.900;2023-12-20T11:50:22;4.25;;;1.17;;
17365;SDS011;8800;50.118;9.900;2023-12-20T11:52:51;5.97;;;1.60;;
17365;SDS011;8800;50.118;9.900;2023-12-20T11:55:17;8.30;;;2.10;;
17365;SDS011;8800;50.118;9.900;2023-12-20T11:57:44;11.65;;;2.30;;
17365;SDS011;8800;50.118;9.900;2023-12-20T12:00:12;9.77;;;2.80;;
17365;SDS011;8800;50.118;9.900;2023-12-20T12:02:39;9.60;;;2.50;;
17365;SDS011;8800;50.118;9.900;2023-12-20T12:05:08;13.13;;;2.60;;
17365;SDS011;8800;50.118;9.900;2023-12-20T12:07:34;7.55;;;1.92;;
17365;SDS011;8800;50.118;9.900;2023-12-20T12:10:01;8.35;;;2.60;;
17365;SDS011;8800;50.118;9.900;2023-12-20T12:12:28;7.72;;;2.50;;
17365;SDS011;8800;50.118;9.900;2023-12-20T12:14:56;8.90;;;1.80;;
17365;SDS011;8800;50.118;9.900;2023-12-20T12:17:23;10.48;;;2.05;;
17365;SDS011;8800;50.118;9.900;2023-12-20T12:19:50;7.15;;;1.95;;
17365;SDS011;8800;50.118;9.900;2023-12-20T12:22:18;11.88;;;1.90;;
17365;SDS011;8800;50.118;9.900;2023-12-20T12:24:45;11.77;;;2.15;;
17365;SDS011;8800;50.118;9.900;2023-12-20T12:27:12;7.68;;;1.73;;
17365;SDS011;8800;50.118;9.900;2023-12-20T12:29:39;6.85;;;1.70;;
17365;SDS011;8800;50.118;9.900;2023-12-20T12:32:05;5.28;;;1.80;;
17365;SDS011;8800;50.118;9.900;2023-12-20T12:34:32;6.20;;;1.70;;
17365;SDS011;8800;50.118;9.900;2023-12-20T12:36:59;9.82;;;2.20;;
17365;SDS011;8800;50.118;9.900;2023-12-20T12:39:27;9.52;;;1.70;;
17365;SDS011;8800;50.118;9.900;2023-12-20T12:41:54;10.05;;;2.13;;
17365;SDS011;8800;50.118;9.900;2023-12-20T12:44:22;10.45;;;3.38;;
17365;SDS011;8800;50.118;9.900;2023-12-20T12:46:48;3.80;;;1.50;;
17365;SDS011;8800;50.118;9.900;2023-12-20T12:49:16;11.00;;;2.50;;
17365;SDS011;8800;50.118;9.900;2023-12-20T12:51:43;12.95;;;2.70;;
17365;SDS011;8800;50.118;9.900;2023-12-20T12:54:10;6.28;;;2.30;;
17365;SDS011;8800;50.118;9.900;2023-12-20T12:56:42;6.70;;;1.75;;
17365;SDS011;8800;50.118;9.900;2023-12-20T12:59:09;11.32;;;2.88;;
17365;SDS011;8800;50.118;9.900;2023-12-20T13:01:36;4.63;;;1.83;;
17365;SDS011;8800;50.118;9.900;2023-12-20T13:04:04;10.43;;;3.30;;
17365;SDS011;8800;50.118;9.900;2023-12-20T13:06:35;13.48;;;3.50;;
17365;SDS011;8800;50.118;9.900;2023-12-20T13:09:01;15.90;;;5.25;;
17365;SDS011;8800;50.118;9.900;2023-12-20T13:11:29;8.50;;;2.20;;
17365;SDS011;8800;50.118;9.900;2023-12-20T13:13:59;7.45;;;1.60;;
17365;SDS011;8800;50.118;9.900;2023-12-20T13:16:26;7.72;;;1.73;;
17365;SDS011;8800;50.118;9.900;2023-12-20T13:18:53;8.90;;;2.25;;
17365;SDS011;8800;50.118;9.900;2023-12-20T13:21:19;6.30;;;1.80;;
17365;SDS011;8800;50.118;9.900;2023-12-20T13:23:46;4.13;;;1.17;;
17365;SDS011;8800;50.118;9.900;2023-12-20T13:26:13;2.38;;;1.10;;
17365;SDS011;8800;50.118;9.900;2023-12-20T13:28:40;12.50;;;1.70;;
17365;SDS011;8800;50.118;9.900;2023-12-20T13:31:08;6.45;;;1.50;;
17365;SDS011;8800;50.118;9.900;2023-12-20T13:33:35;8.50;;;2.00;;
17365;SDS011;8800;50.118;9.900;2023-12-20T13:36:01;6.82;;;1.50;;
17365;SDS011;8800;50.118;9.900;2023-12-20T13:38:28;6.28;;;1.73;;
17365;SDS011;8800;50.118;9.900;2023-12-20T13:40:55;8.73;;;1.70;;
17365;SDS011;8800;50.118;9.900;2023-12-20T13:43:23;7.43;;;1.88;;
17365;SDS011;8800;50.118;9.900;2023-12-20T13:45:50;7.43;;;1.60;;
17365;SDS011;8800;50.118;9.900;2023-12-20T13:48:18;4.25;;;1.70;;
17365;SDS011;8800;50.118;9.900;2023-12-20T13:50:44;5.88;;;1.60;;
17365;SDS011;8800;50.118;9.900;2023-12-20T13:53:11;5.75;;;1.92;;
17365;SDS011;8800;50.118;9.900;2023-12-20T13:55:38;9.90;;;2.08;;
17365;SDS011;8800;50.118;9.900;2023-12-20T13:58:05;9.02;;;2.13;;
17365;SDS011;8800;50.118;9.900;2023-12-20T14:00:32;5.75;;;1.58;;
17365;SDS011;8800;50.118;9.900;2023-12-20T14:02:58;7.13;;;2.10;;
17365;SDS011;8800;50.118;9.900;2023-12-20T14:05:26;6.95;;;1.50;;
17365;SDS011;8800;50.118;9.900;2023-12-20T14:07:53;5.72;;;1.67;;
17365;SDS011;8800;50.118;9.900;2023-12-20T14:10:19;6.03;;;1.80;;
17365;SDS011;8800;50.118;9.900;2023-12-20T14:12:46;6.70;;;2.10;;
17365;SDS011;8800;50.118;9.900;2023-12-20T14:15:13;6.78;;;1.63;;
17365;SDS011;8800;50.118;9.900;2023-12-20T14:17:40;9.65;;;2.20;;
17365;SDS011;8800;50.118;9.900;2023-12-20T14:20:07;8.85;;;2.30;;
17365;SDS011;8800;50.118;9.900;2023-12-20T14:22:35;5.55;;;1.77;;
17365;SDS011;8800;50.118;9.900;2023-12-20T14:25:04;5.82;;;2.17;;
17365;SDS011;8800;50.118;9.900;2023-12-20T14:27:31;12.57;;;2.35;;
17365;SDS011;8800;50.118;9.900;2023-12-20T14:29:58;11.65;;;2.47;;
17365;SDS011;8800;50.118;9.900;2023-12-20T14:32:24;12.20;;;3.30;;
17365;SDS011;8800;50.118;9.900;2023-12-20T14:34:53;8.40;;;1.50;;
17365;SDS011;8800;50.118;9.900;2023-12-20T14:37:20;9.85;;;2.50;;
17365;SDS011;8800;50.118;9.900;2023-12-20T14:39:48;7.35;;;2.13;;
17365;SDS011;8800;50.118;9.900;2023-12-20T14:42:14;5.93;;;1.90;;
17365;SDS011;8800;50.118;9.900;2023-12-20T14:44:41;4.57;;;1.65;;
17365;SDS011;8800;50.118;9.900;2023-12-20T14:47:08;4.40;;;1.88;;
17365;SDS011;8800;50.118;9.900;2023-12-20T14:49:35;5.60;;;2.00;;
17365;SDS011;8800;50.118;9.900;2023-12-20T14:52:06;10.50;;;1.92;;
17365;SDS011;8800;50.118;9.900;2023-12-20T14:54:33;9.60;;;2.58;;
17365;SDS011;8800;50.118;9.900;2023-12-20T14:57:01;12.18;;;2.30;;
17365;SDS011;8800;50.118;9.900;2023-12-20T14:59:27;6.35;;;1.85;;
17365;SDS011;8800;50.118;9.900;2023-12-20T15:01:54;10.15;;;2.30;;